Terminal Aerodrome Forecast
Issued by NWS

Current Version | Previous Version | Text Only | Print | Product List | Glossary Off
Versions: 1 2 3 4 5 6 7 8 9 10 11 12 13 14 15 16

000
FTUS41 KILN 221100
TAFLCK
TAF
KLCK 221120Z 2212/2312 21004KT P6SM SKC
     FM221400 25006KT P6SM SCT080
     FM221700 30011G16KT P6SM VCSH BKN050
     FM222200 36008KT P6SM SCT050
     FM230100 07004KT P6SM SCT200=

USA.gov is the U.S. government's official web portal to all federal, state and local government web resources and services.